Back to Top

Language: 

My Weather Underground Personal Weather Station Historical Data with Graphs...

Delerius Weather Station Historical Data
Daily Summary for April 2, 2017 Units:  English    Metric   Both
« Previous Day
Next Day »
Daily Weekly Monthly Yearly Custom
  High: Low: Average:
Temperature: 59.5 °F 42.6 °F 50.2 °F
Dew Point: 46.2 °F 39.0 °F 42.7 °F
Humidity: 92 % 51 % 77 %
Wind Speed: 7.0 mph 0.0 mph 2.5 mph
Wind Gust: 14.0 mph - -
Wind:- - West
Pressure: 30.27 in 29.94 in -
Precipitation: 0.00 in    
Historical Graphs
 
 
Tabular Data for April 2, 2017
Time Temperature Dew Point Pressure Wind Wind Speed Wind Gust Humidity Rainfall Rate (Hourly) solar Conditions
00:03 47.1 °F 43.7 °F 29.94 in WNW 6.0 mph 11.0 mph 88 % 0.00 in 0 W/m2
00:08 47.1 °F 43.7 °F 29.94 in WNW 6.0 mph 11.0 mph 88 % 0.00 in 0 W/m2
00:13 47.1 °F 43.7 °F 29.94 in WNW 6.0 mph 11.0 mph 88 % 0.00 in 0 W/m2
00:18 46.9 °F 43.6 °F 29.95 in WNW 7.0 mph 11.0 mph 88 % 0.00 in 0 W/m2
00:23 46.9 °F 43.6 °F 29.94 in WNW 7.0 mph 11.0 mph 88 % 0.00 in 0 W/m2
00:28 46.8 °F 43.4 °F 29.95 in WNW 7.0 mph 13.0 mph 88 % 0.00 in 0 W/m2
00:33 46.8 °F 43.4 °F 29.95 in WNW 7.0 mph 14.0 mph 88 % 0.00 in 0 W/m2
00:38 46.8 °F 43.4 °F 29.95 in WNW 6.0 mph 14.0 mph 88 % 0.00 in 0 W/m2
00:43 46.8 °F 43.4 °F 29.95 in WNW 6.0 mph 12.0 mph 88 % 0.00 in 0 W/m2
00:48 46.6 °F 43.2 °F 29.95 in WNW 6.0 mph 12.0 mph 88 % 0.00 in 0 W/m2
00:53 46.6 °F 43.2 °F 29.95 in WNW 6.0 mph 12.0 mph 88 % 0.00 in 0 W/m2
00:58 46.6 °F 43.2 °F 29.95 in WNW 5.0 mph 11.0 mph 88 % 0.00 in 0 W/m2
01:03 46.4 °F 43.0 °F 29.96 in WNW 5.0 mph 10.0 mph 88 % 0.00 in 0 W/m2
01:08 46.2 °F 42.9 °F 29.96 in WNW 5.0 mph 10.0 mph 88 % 0.00 in 0 W/m2
01:13 46.2 °F 42.9 °F 29.96 in WNW 5.0 mph 9.0 mph 88 % 0.00 in 0 W/m2
01:18 46.2 °F 42.9 °F 29.97 in NW 4.0 mph 9.0 mph 88 % 0.00 in 0 W/m2
01:23 46.0 °F 42.7 °F 29.97 in NW 2.0 mph 8.0 mph 88 % 0.00 in 0 W/m2
01:28 46.0 °F 42.7 °F 29.97 in NW 1.0 mph 5.0 mph 88 % 0.00 in 0 W/m2
01:33 45.9 °F 42.8 °F 29.97 in NW 1.0 mph 5.0 mph 89 % 0.00 in 0 W/m2
01:38 45.7 °F 42.6 °F 29.97 in NNW 1.0 mph 5.0 mph 89 % 0.00 in 0 W/m2
01:44 45.5 °F 42.4 °F 29.98 in NNW 1.0 mph 5.0 mph 89 % 0.00 in 0 W/m2
01:49 45.5 °F 42.4 °F 29.98 in NNW 2.0 mph 6.0 mph 89 % 0.00 in 0 W/m2
01:54 45.5 °F 42.4 °F 29.98 in NW 3.0 mph 7.0 mph 89 % 0.00 in 0 W/m2
01:59 45.3 °F 42.3 °F 29.98 in NW 2.0 mph 7.0 mph 89 % 0.00 in 0 W/m2
02:04 45.1 °F 42.1 °F 29.98 in NW 1.0 mph 5.0 mph 89 % 0.00 in 0 W/m2
02:09 45.0 °F 41.9 °F 29.98 in NW 2.0 mph 5.0 mph 89 % 0.00 in 0 W/m2
02:14 45.0 °F 42.2 °F 29.98 in NW 4.0 mph 11.0 mph 90 % 0.00 in 0 W/m2
02:19 45.1 °F 42.4 °F 29.98 in NW 6.0 mph 11.0 mph 90 % 0.00 in 0 W/m2
02:24 45.1 °F 42.1 °F 29.99 in NW 6.0 mph 11.0 mph 89 % 0.00 in 0 W/m2
02:29 45.1 °F 42.1 °F 29.99 in NW 5.0 mph 10.0 mph 89 % 0.00 in 0 W/m2
02:34 45.1 °F 42.1 °F 29.99 in WNW 5.0 mph 8.0 mph 89 % 0.00 in 0 W/m2
02:39 45.0 °F 41.9 °F 29.99 in WNW 4.0 mph 8.0 mph 89 % 0.00 in 0 W/m2
02:44 45.0 °F 41.9 °F 29.99 in WNW 4.0 mph 8.0 mph 89 % 0.00 in 0 W/m2
02:49 45.0 °F 41.9 °F 29.99 in WNW 4.0 mph 8.0 mph 89 % 0.00 in 0 W/m2
02:54 44.8 °F 42.0 °F 30.00 in WNW 4.0 mph 7.0 mph 90 % 0.00 in 0 W/m2
02:59 44.8 °F 42.0 °F 30.00 in WNW 3.0 mph 8.0 mph 90 % 0.00 in 0 W/m2
03:04 44.8 °F 42.0 °F 30.00 in WNW 3.0 mph 8.0 mph 90 % 0.00 in 0 W/m2
03:09 44.8 °F 42.0 °F 30.00 in WNW 3.0 mph 8.0 mph 90 % 0.00 in 0 W/m2
03:14 44.8 °F 42.0 °F 30.00 in WNW 4.0 mph 12.0 mph 90 % 0.00 in 0 W/m2
03:19 45.0 °F 42.5 °F 30.00 in WNW 5.0 mph 12.0 mph 91 % 0.00 in 0 W/m2
03:25 45.1 °F 42.4 °F 30.01 in WNW 5.0 mph 10.0 mph 90 % 0.00 in 0 W/m2
03:30 45.3 °F 42.6 °F 30.01 in WNW 4.0 mph 8.0 mph 90 % 0.00 in 0 W/m2
03:35 45.3 °F 42.6 °F 30.01 in WNW 2.0 mph 8.0 mph 90 % 0.00 in 0 W/m2
03:40 45.5 °F 42.7 °F 30.01 in West 1.0 mph 6.0 mph 90 % 0.00 in 0 W/m2
03:45 45.7 °F 42.9 °F 30.01 in West 1.0 mph 6.0 mph 90 % 0.00 in 0 W/m2
03:50 45.7 °F 42.9 °F 30.01 in West 1.0 mph 4.0 mph 90 % 0.00 in 0 W/m2
03:55 45.5 °F 42.4 °F 30.01 in West 1.0 mph 6.0 mph 89 % 0.00 in 0 W/m2
04:00 45.3 °F 42.3 °F 30.01 in WNW 2.0 mph 6.0 mph 89 % 0.00 in 0 W/m2
04:05 45.1 °F 42.1 °F 30.01 in WNW 3.0 mph 8.0 mph 89 % 0.00 in 0 W/m2
04:10 45.0 °F 42.2 °F 30.01 in WNW 5.0 mph 10.0 mph 90 % 0.00 in 0 W/m2
04:14 44.8 °F 42.0 °F 30.01 in WNW 6.0 mph 10.0 mph 90 % 0.00 in 0 W/m2
04:19 44.8 °F 42.0 °F 30.01 in WNW 6.0 mph 10.0 mph 90 % 0.00 in 0 W/m2
04:24 44.6 °F 41.8 °F 30.02 in WNW 6.0 mph 9.0 mph 90 % 0.00 in 0 W/m2
04:29 44.4 °F 41.7 °F 30.01 in WNW 5.0 mph 9.0 mph 90 % 0.00 in 0 W/m2
04:34 44.2 °F 41.5 °F 30.02 in WNW 4.0 mph 8.0 mph 90 % 0.00 in 0 W/m2
04:39 44.1 °F 41.3 °F 30.02 in WNW 3.0 mph 7.0 mph 90 % 0.00 in 0 W/m2
04:44 43.9 °F 41.1 °F 30.02 in WNW 4.0 mph 8.0 mph 90 % 0.00 in 0 W/m2
04:49 43.7 °F 41.2 °F 30.02 in WNW 5.0 mph 10.0 mph 91 % 0.00 in 0 W/m2
04:54 43.7 °F 41.2 °F 30.02 in WNW 6.0 mph 12.0 mph 91 % 0.00 in 0 W/m2
04:59 43.5 °F 41.1 °F 30.02 in WNW 5.0 mph 12.0 mph 91 % 0.00 in 0 W/m2
05:04 43.3 °F 40.9 °F 30.02 in WNW 4.0 mph 8.0 mph 91 % 0.00 in 0 W/m2
05:09 43.3 °F 40.9 °F 30.03 in WNW 5.0 mph 9.0 mph 91 % 0.00 in 0 W/m2
05:14 43.3 °F 40.9 °F 30.03 in WNW 6.0 mph 10.0 mph 91 % 0.00 in 0 W/m2
05:19 43.3 °F 40.9 °F 30.04 in WNW 6.0 mph 10.0 mph 91 % 0.00 in 0 W/m2
05:24 43.3 °F 40.9 °F 30.04 in NW 6.0 mph 10.0 mph 91 % 0.00 in 0 W/m2
05:29 43.2 °F 40.7 °F 30.04 in NW 4.0 mph 9.0 mph 91 % 0.00 in 0 W/m2
05:34 43.2 °F 40.7 °F 30.04 in NW 3.0 mph 6.0 mph 91 % 0.00 in 0 W/m2
05:39 43.0 °F 40.5 °F 30.05 in NW 3.0 mph 8.0 mph 91 % 0.00 in 0 W/m2
05:44 43.0 °F 40.5 °F 30.05 in NW 3.0 mph 8.0 mph 91 % 0.00 in 0 W/m2
05:49 43.0 °F 40.5 °F 30.05 in NW 2.0 mph 5.0 mph 91 % 0.00 in 0 W/m2
05:54 42.8 °F 40.4 °F 30.05 in WNW 2.0 mph 6.0 mph 91 % 0.00 in 0 W/m2
05:59 42.6 °F 40.2 °F 30.05 in WNW 3.0 mph 6.0 mph 91 % 0.00 in 0 W/m2
06:04 42.6 °F 40.5 °F 30.05 in WNW 5.0 mph 9.0 mph 92 % 0.00 in 0 W/m2
06:09 42.6 °F 40.5 °F 30.05 in WNW 6.0 mph 11.0 mph 92 % 0.00 in 0 W/m2
06:14 42.6 °F 40.5 °F 30.06 in WNW 6.0 mph 11.0 mph 92 % 0.00 in 0 W/m2
06:19 42.6 °F 40.5 °F 30.06 in WNW 6.0 mph 11.0 mph 92 % 0.00 in 0 W/m2
06:24 42.6 °F 40.5 °F 30.06 in WNW 5.0 mph 10.0 mph 92 % 0.00 in 0 W/m2
06:29 42.6 °F 40.5 °F 30.06 in WNW 5.0 mph 10.0 mph 92 % 0.00 in 0 W/m2
06:34 42.6 °F 40.5 °F 30.07 in WNW 4.0 mph 7.0 mph 92 % 0.00 in 0 W/m2
06:39 42.8 °F 40.6 °F 30.07 in WNW 4.0 mph 7.0 mph 92 % 0.00 in 7 W/m2
06:44 43.0 °F 40.8 °F 30.07 in WNW 4.0 mph 8.0 mph 92 % 0.00 in 7 W/m2
06:49 43.0 °F 40.8 °F 30.08 in WNW 4.0 mph 8.0 mph 92 % 0.00 in 16 W/m2
06:54 43.0 °F 40.8 °F 30.08 in WNW 4.0 mph 8.0 mph 92 % 0.00 in 12 W/m2
06:59 43.2 °F 41.0 °F 30.08 in WNW 4.0 mph 8.0 mph 92 % 0.00 in 14 W/m2
07:04 43.2 °F 41.0 °F 30.08 in WNW 5.0 mph 10.0 mph 92 % 0.00 in 21 W/m2
07:09 43.3 °F 41.2 °F 30.09 in WNW 5.0 mph 10.0 mph 92 % 0.00 in 19 W/m2
07:14 43.5 °F 41.4 °F 30.09 in WNW 5.0 mph 10.0 mph 92 % 0.00 in 21 W/m2
07:20 43.9 °F 41.7 °F 30.09 in WNW 5.0 mph 10.0 mph 92 % 0.00 in 26 W/m2
07:25 44.1 °F 41.6 °F 30.10 in WNW 5.0 mph 9.0 mph 91 % 0.00 in 28 W/m2
07:30 44.2 °F 41.8 °F 30.10 in NW 5.0 mph 10.0 mph 91 % 0.00 in 44 W/m2
07:35 44.2 °F 41.8 °F 30.10 in NW 5.0 mph 10.0 mph 91 % 0.00 in 60 W/m2
07:40 44.6 °F 41.8 °F 30.10 in NW 6.0 mph 11.0 mph 90 % 0.00 in 49 W/m2
07:45 44.8 °F 42.0 °F 30.11 in WNW 7.0 mph 11.0 mph 90 % 0.00 in 51 W/m2
07:50 45.0 °F 42.2 °F 30.11 in WNW 6.0 mph 12.0 mph 90 % 0.00 in 46 W/m2
07:55 45.0 °F 41.9 °F 30.11 in NW 6.0 mph 12.0 mph 89 % 0.00 in 47 W/m2
08:00 45.1 °F 42.1 °F 30.12 in NW 6.0 mph 11.0 mph 89 % 0.00 in 86 W/m2
08:05 45.3 °F 42.3 °F 30.12 in NW 6.0 mph 11.0 mph 89 % 0.00 in 113 W/m2
08:10 45.5 °F 42.2 °F 30.12 in NW 6.0 mph 10.0 mph 88 % 0.00 in 98 W/m2
08:15 45.9 °F 42.5 °F 30.12 in NW 5.0 mph 10.0 mph 88 % 0.00 in 107 W/m2
08:20 46.0 °F 42.7 °F 30.13 in NW 4.0 mph 9.0 mph 88 % 0.00 in 153 W/m2
08:25 46.2 °F 42.9 °F 30.13 in NW 4.0 mph 8.0 mph 88 % 0.00 in 135 W/m2
08:30 46.6 °F 42.9 °F 30.13 in WNW 5.0 mph 10.0 mph 87 % 0.00 in 139 W/m2
08:35 46.8 °F 42.8 °F 30.13 in WNW 5.0 mph 10.0 mph 86 % 0.00 in 158 W/m2
08:40 46.9 °F 43.0 °F 30.13 in WNW 5.0 mph 8.0 mph 86 % 0.00 in 149 W/m2
08:45 47.1 °F 43.1 °F 30.14 in WNW 5.0 mph 10.0 mph 86 % 0.00 in 199 W/m2
08:50 47.3 °F 43.3 °F 30.14 in WNW 6.0 mph 12.0 mph 86 % 0.00 in 199 W/m2
08:55 47.5 °F 43.2 °F 30.14 in WNW 6.0 mph 12.0 mph 85 % 0.00 in 156 W/m2
09:00 47.7 °F 43.1 °F 30.14 in WNW 6.0 mph 11.0 mph 84 % 0.00 in 179 W/m2
09:05 47.8 °F 43.2 °F 30.15 in WNW 5.0 mph 10.0 mph 84 % 0.00 in 220 W/m2
09:10 48.2 °F 43.6 °F 30.15 in NW 4.0 mph 10.0 mph 84 % 0.00 in 199 W/m2
09:16 48.4 °F 43.5 °F 30.15 in NW 5.0 mph 11.0 mph 83 % 0.00 in 190 W/m2
09:21 48.6 °F 43.3 °F 30.15 in NW 5.0 mph 11.0 mph 82 % 0.00 in 188 W/m2
09:26 48.7 °F 43.5 °F 30.15 in NW 5.0 mph 9.0 mph 82 % 0.00 in 192 W/m2
09:31 48.6 °F 43.3 °F 30.16 in NW 6.0 mph 10.0 mph 82 % 0.00 in 158 W/m2
09:36 48.6 °F 43.3 °F 30.16 in NNW 5.0 mph 10.0 mph 82 % 0.00 in 135 W/m2
09:41 48.6 °F 43.3 °F 30.16 in NNW 3.0 mph 8.0 mph 82 % 0.00 in 144 W/m2
09:46 48.7 °F 43.5 °F 30.16 in NNW 3.0 mph 7.0 mph 82 % 0.00 in 135 W/m2
09:51 48.7 °F 43.2 °F 30.16 in NW 3.0 mph 7.0 mph 81 % 0.00 in 167 W/m2
09:56 48.9 °F 43.7 °F 30.17 in NNW 2.0 mph 7.0 mph 82 % 0.00 in 248 W/m2
10:01 49.1 °F 43.8 °F 30.17 in NNW 2.0 mph 8.0 mph 82 % 0.00 in 288 W/m2
10:06 49.5 °F 44.2 °F 30.17 in NW 4.0 mph 9.0 mph 82 % 0.00 in 301 W/m2
10:11 49.8 °F 44.2 °F 30.17 in NNW 4.0 mph 9.0 mph 81 % 0.00 in 302 W/m2
10:16 50.2 °F 44.6 °F 30.17 in NNW 3.0 mph 7.0 mph 81 % 0.00 in 309 W/m2
10:21 50.4 °F 44.4 °F 30.17 in NNW 4.0 mph 10.0 mph 80 % 0.00 in 320 W/m2
10:26 50.5 °F 44.9 °F 30.17 in NNW 3.0 mph 10.0 mph 81 % 0.00 in 299 W/m2
10:31 50.9 °F 44.9 °F 30.17 in NNW 3.0 mph 8.0 mph 80 % 0.00 in 288 W/m2
10:36 51.1 °F 45.1 °F 30.18 in NNW 2.0 mph 7.0 mph 80 % 0.00 in 373 W/m2
10:41 51.3 °F 45.0 °F 30.17 in NNW 1.0 mph 5.0 mph 79 % 0.00 in 580 W/m2
10:46 51.8 °F 45.2 °F 30.17 in NW 1.0 mph 4.0 mph 78 % 0.00 in 332 W/m2
10:51 52.2 °F 45.2 °F 30.17 in NNW 1.0 mph 5.0 mph 77 % 0.00 in 362 W/m2
10:56 52.3 °F 45.3 °F 30.18 in North 2.0 mph 9.0 mph 77 % 0.00 in 341 W/m2
11:01 52.5 °F 45.2 °F 30.18 in NNE 2.0 mph 9.0 mph 76 % 0.00 in 216 W/m2
11:06 52.3 °F 44.6 °F 30.18 in NE 2.0 mph 8.0 mph 75 % 0.00 in 246 W/m2
11:11 52.2 °F 44.8 °F 30.18 in NE 2.0 mph 8.0 mph 76 % 0.00 in 288 W/m2
11:16 52.2 °F 44.5 °F 30.18 in East 1.0 mph 5.0 mph 75 % 0.00 in 290 W/m2
11:21 52.3 °F 44.6 °F 30.19 in SE 1.0 mph 4.0 mph 75 % 0.00 in 257 W/m2
11:26 52.5 °F 44.8 °F 30.19 in North 1.0 mph 6.0 mph 75 % 0.00 in 251 W/m2
11:31 52.5 °F 45.5 °F 30.19 in North 2.0 mph 6.0 mph 77 % 0.00 in 221 W/m2
11:36 52.7 °F 45.3 °F 30.19 in NNW 1.0 mph 6.0 mph 76 % 0.00 in 179 W/m2
11:41 52.5 °F 45.2 °F 30.19 in North 1.0 mph 6.0 mph 76 % 0.00 in 199 W/m2
11:46 52.5 °F 45.2 °F 30.19 in NNE 1.0 mph 4.0 mph 76 % 0.00 in 243 W/m2
11:51 52.5 °F 45.2 °F 30.20 in Calm   4.0 mph 76 % 0.00 in 264 W/m2
11:56 52.5 °F 44.8 °F 30.19 in NE 1.0 mph 5.0 mph 75 % 0.00 in 364 W/m2
12:01 52.5 °F 44.8 °F 30.19 in ENE 1.0 mph 5.0 mph 75 % 0.00 in 455 W/m2
12:06 52.9 °F 45.2 °F 30.19 in ENE 1.0 mph 5.0 mph 75 % 0.00 in 480 W/m2
12:12 53.1 °F 45.0 °F 30.19 in ENE 1.0 mph 5.0 mph 74 % 0.00 in 394 W/m2
12:17 53.2 °F 44.8 °F 30.19 in ENE 1.0 mph 4.0 mph 73 % 0.00 in 410 W/m2
12:22 53.8 °F 45.7 °F 30.19 in Calm   4.0 mph 74 % 0.00 in 401 W/m2
12:27 54.3 °F 45.8 °F 30.19 in NW 1.0 mph 4.0 mph 73 % 0.00 in 339 W/m2
12:32 54.5 °F 45.7 °F 30.19 in NW 1.0 mph 4.0 mph 72 % 0.00 in 271 W/m2
12:37 54.7 °F 45.1 °F 30.20 in Calm   3.0 mph 70 % 0.00 in 237 W/m2
12:42 54.7 °F 45.1 °F 30.20 in North 1.0 mph 4.0 mph 70 % 0.00 in 258 W/m2
12:47 54.7 °F 44.7 °F 30.20 in NNW 1.0 mph 4.0 mph 69 % 0.00 in 322 W/m2
12:52 54.9 °F 45.3 °F 30.20 in Calm   2.0 mph 70 % 0.00 in 360 W/m2
12:57 55.2 °F 45.6 °F 30.19 in NNW 1.0 mph 5.0 mph 70 % 0.00 in 541 W/m2
13:02 55.8 °F 45.4 °F 30.19 in NNW 1.0 mph 5.0 mph 68 % 0.00 in 1062 W/m2
13:07 56.1 °F 45.3 °F 30.20 in West 2.0 mph 6.0 mph 67 % 0.00 in 489 W/m2
13:12 56.1 °F 45.3 °F 30.20 in West 2.0 mph 6.0 mph 67 % 0.00 in 789 W/m2
13:17 56.5 °F 45.3 °F 30.20 in West 1.0 mph 4.0 mph 66 % 0.00 in 362 W/m2
13:22 56.3 °F 45.1 °F 30.20 in Calm   2.0 mph 66 % 0.00 in 362 W/m2
13:27 56.5 °F 44.9 °F 30.20 in WNW 1.0 mph 7.0 mph 65 % 0.00 in 279 W/m2
13:32 56.5 °F 44.9 °F 30.20 in NW 2.0 mph 7.0 mph 65 % 0.00 in 313 W/m2
13:37 56.5 °F 44.9 °F 30.20 in NNW 1.0 mph 4.0 mph 65 % 0.00 in 311 W/m2
13:42 56.7 °F 45.4 °F 30.20 in NW 1.0 mph 4.0 mph 66 % 0.00 in 490 W/m2
13:47 57.0 °F 46.2 °F 30.19 in North 2.0 mph 7.0 mph 67 % 0.00 in 979 W/m2
13:52 57.4 °F 45.7 °F 30.19 in NNE 3.0 mph 8.0 mph 65 % 0.00 in 606 W/m2
13:57 57.4 °F 45.7 °F 30.20 in NNE 3.0 mph 8.0 mph 65 % 0.00 in 262 W/m2
14:02 57.2 °F 45.5 °F 30.20 in NNW 3.0 mph 7.0 mph 65 % 0.00 in 264 W/m2
14:07 57.2 °F 45.1 °F 30.20 in NNW 3.0 mph 7.0 mph 64 % 0.00 in 271 W/m2
14:12 56.8 °F 44.8 °F 30.20 in NNW 3.0 mph 7.0 mph 64 % 0.00 in 292 W/m2
14:17 56.7 °F 44.6 °F 30.20 in North 2.0 mph 7.0 mph 64 % 0.00 in 294 W/m2
14:22 56.7 °F 44.6 °F 30.19 in North 1.0 mph 4.0 mph 64 % 0.00 in 350 W/m2
14:27 56.8 °F 44.8 °F 30.20 in North 2.0 mph 6.0 mph 64 % 0.00 in 886 W/m2
14:32 56.8 °F 44.4 °F 30.20 in NE 2.0 mph 6.0 mph 63 % 0.00 in 255 W/m2
14:37 57.0 °F 44.5 °F 30.20 in East 2.0 mph 6.0 mph 63 % 0.00 in 318 W/m2
14:42 57.0 °F 43.7 °F 30.20 in East 2.0 mph 6.0 mph 61 % 0.00 in 246 W/m2
14:48 56.7 °F 43.4 °F 30.20 in ENE 2.0 mph 5.0 mph 61 % 0.00 in 234 W/m2
14:52 56.5 °F 43.6 °F 30.20 in ENE 1.0 mph 5.0 mph 62 % 0.00 in 279 W/m2
14:58 56.5 °F 42.8 °F 30.20 in East 1.0 mph 4.0 mph 60 % 0.00 in 250 W/m2
15:03 56.5 °F 43.2 °F 30.20 in SE 1.0 mph 5.0 mph 61 % 0.00 in 278 W/m2
15:08 56.7 °F 42.5 °F 30.20 in SSE 1.0 mph 5.0 mph 59 % 0.00 in 257 W/m2
15:13 56.7 °F 42.9 °F 30.20 in SSW 2.0 mph 5.0 mph 60 % 0.00 in 276 W/m2
15:18 56.7 °F 42.9 °F 30.20 in SSW 2.0 mph 5.0 mph 60 % 0.00 in 722 W/m2
15:23 57.0 °F 42.8 °F 30.20 in South 2.0 mph 7.0 mph 59 % 0.00 in 582 W/m2
15:28 57.4 °F 43.2 °F 30.20 in SSE 3.0 mph 7.0 mph 59 % 0.00 in 236 W/m2
15:33 57.4 °F 43.2 °F 30.20 in South 2.0 mph 7.0 mph 59 % 0.00 in 267 W/m2
15:38 57.4 °F 42.3 °F 30.20 in SSW 1.0 mph 4.0 mph 57 % 0.00 in 304 W/m2
15:43 57.6 °F 42.9 °F 30.20 in SW 1.0 mph 5.0 mph 58 % 0.00 in 765 W/m2
15:48 57.9 °F 42.8 °F 30.20 in West 2.0 mph 6.0 mph 57 % 0.00 in 239 W/m2
15:53 58.1 °F 43.4 °F 30.20 in WNW 4.0 mph 6.0 mph 58 % 0.00 in 656 W/m2
15:58 58.3 °F 43.1 °F 30.20 in West 4.0 mph 6.0 mph 57 % 0.00 in 172 W/m2
16:03 58.5 °F 42.8 °F 30.20 in West 2.0 mph 6.0 mph 56 % 0.00 in 589 W/m2
16:08 58.8 °F 42.7 °F 30.20 in West 1.0 mph 6.0 mph 55 % 0.00 in 176 W/m2
16:13 58.8 °F 42.7 °F 30.20 in West 1.0 mph 6.0 mph 55 % 0.00 in 200 W/m2
16:18 58.6 °F 42.5 °F 30.21 in West 1.0 mph 6.0 mph 55 % 0.00 in 209 W/m2
16:23 58.5 °F 41.9 °F 30.20 in West 2.0 mph 6.0 mph 54 % 0.00 in 243 W/m2
16:28 58.5 °F 42.8 °F 30.20 in West 1.0 mph 5.0 mph 56 % 0.00 in 211 W/m2
16:33 58.3 °F 42.2 °F 30.20 in West 1.0 mph 3.0 mph 55 % 0.00 in 209 W/m2
16:38 58.1 °F 42.5 °F 30.20 in West 2.0 mph 5.0 mph 56 % 0.00 in 229 W/m2
16:43 58.1 °F 42.5 °F 30.20 in WNW 1.0 mph 5.0 mph 56 % 0.00 in 478 W/m2
16:48 58.5 °F 42.3 °F 30.20 in WNW 1.0 mph 5.0 mph 55 % 0.00 in 192 W/m2
16:53 58.5 °F 41.9 °F 30.20 in WNW 2.0 mph 5.0 mph 54 % 0.00 in 178 W/m2
16:58 58.5 °F 41.9 °F 30.20 in WNW 2.0 mph 5.0 mph 54 % 0.00 in 165 W/m2
17:03 58.3 °F 41.7 °F 30.20 in WNW 1.0 mph 5.0 mph 54 % 0.00 in 167 W/m2
17:08 58.1 °F 41.5 °F 30.20 in WNW 1.0 mph 4.0 mph 54 % 0.00 in 160 W/m2
17:14 57.7 °F 41.7 °F 30.20 in WNW 1.0 mph 5.0 mph 55 % 0.00 in 355 W/m2
17:19 58.3 °F 42.2 °F 30.20 in WNW 1.0 mph 5.0 mph 55 % 0.00 in 415 W/m2
17:24 58.6 °F 41.5 °F 30.20 in WNW 1.0 mph 5.0 mph 53 % 0.00 in 369 W/m2
17:29 59.0 °F 41.4 °F 30.20 in WNW 1.0 mph 4.0 mph 52 % 0.00 in 338 W/m2
17:34 59.2 °F 42.0 °F 30.20 in WNW 1.0 mph 4.0 mph 53 % 0.00 in 237 W/m2
17:39 59.0 °F 41.9 °F 30.21 in WNW 2.0 mph 5.0 mph 53 % 0.00 in 294 W/m2
17:44 59.2 °F 42.0 °F 30.21 in West 2.0 mph 5.0 mph 53 % 0.00 in 281 W/m2
17:49 59.5 °F 41.4 °F 30.21 in West 1.0 mph 5.0 mph 51 % 0.00 in 206 W/m2
17:54 59.5 °F 41.4 °F 30.21 in West 1.0 mph 3.0 mph 51 % 0.00 in 248 W/m2
17:59 59.4 °F 41.2 °F 30.21 in West 1.0 mph 4.0 mph 51 % 0.00 in 179 W/m2
18:04 59.4 °F 41.2 °F 30.21 in West 1.0 mph 4.0 mph 51 % 0.00 in 202 W/m2
18:09 59.0 °F 41.4 °F 30.21 in West 1.0 mph 4.0 mph 52 % 0.00 in 63 W/m2
18:14 58.8 °F 41.7 °F 30.21 in Calm   2.0 mph 53 % 0.00 in 176 W/m2
18:19 58.5 °F 41.9 °F 30.21 in Calm   2.0 mph 54 % 0.00 in 188 W/m2
18:24 58.5 °F 42.3 °F 30.21 in Calm   2.0 mph 55 % 0.00 in 195 W/m2
18:29 58.3 °F 42.6 °F 30.21 in Calm   2.0 mph 56 % 0.00 in 76 W/m2
18:34 57.9 °F 42.3 °F 30.22 in SE 1.0 mph 6.0 mph 56 % 0.00 in 67 W/m2
18:39 57.6 °F 42.9 °F 30.22 in ESE 3.0 mph 6.0 mph 58 % 0.00 in 70 W/m2
18:44 57.2 °F 42.5 °F 30.22 in ESE 2.0 mph 5.0 mph 58 % 0.00 in 84 W/m2
18:49 56.8 °F 42.7 °F 30.22 in East 2.0 mph 5.0 mph 59 % 0.00 in 93 W/m2
18:54 56.7 °F 42.9 °F 30.22 in East 1.0 mph 6.0 mph 60 % 0.00 in 84 W/m2
18:59 56.5 °F 43.2 °F 30.22 in ESE 3.0 mph 8.0 mph 61 % 0.00 in 42 W/m2
19:04 56.3 °F 43.4 °F 30.22 in SE 4.0 mph 8.0 mph 62 % 0.00 in 33 W/m2
19:09 56.1 °F 43.3 °F 30.22 in SE 3.0 mph 6.0 mph 62 % 0.00 in 28 W/m2
19:14 55.9 °F 43.1 °F 30.22 in SE 2.0 mph 6.0 mph 62 % 0.00 in 21 W/m2
19:19 55.8 °F 43.3 °F 30.22 in SE 2.0 mph 6.0 mph 63 % 0.00 in 14 W/m2
19:24 55.6 °F 43.2 °F 30.22 in SE 2.0 mph 5.0 mph 63 % 0.00 in 9 W/m2
19:29 55.2 °F 43.2 °F 30.22 in SE 1.0 mph 5.0 mph 64 % 0.00 in 5 W/m2
19:34 55.0 °F 43.5 °F 30.22 in Calm   2.0 mph 65 % 0.00 in 5 W/m2
19:40 54.9 °F 43.3 °F 30.23 in Calm   2.0 mph 65 % 0.00 in 0 W/m2
19:45 54.7 °F 43.5 °F 30.23 in Calm   1.0 mph 66 % 0.00 in 0 W/m2
19:49 54.1 °F 43.0 °F 30.23 in Calm   1.0 mph 66 % 0.00 in 0 W/m2
19:54 53.8 °F 42.7 °F 30.23 in Calm     66 % 0.00 in 0 W/m2
20:00 53.2 °F 42.6 °F 30.23 in Calm     67 % 0.00 in 0 W/m2
20:04 52.9 °F 42.6 °F 30.23 in Calm     68 % 0.00 in 0 W/m2
20:10 52.5 °F 42.6 °F 30.24 in Calm   1.0 mph 69 % 0.00 in 0 W/m2
20:15 52.2 °F 42.7 °F 30.24 in Calm   1.0 mph 70 % 0.00 in 0 W/m2
20:20 52.0 °F 42.5 °F 30.24 in Calm   1.0 mph 70 % 0.00 in 0 W/m2
20:25 51.6 °F 42.5 °F 30.24 in Calm   5.0 mph 71 % 0.00 in 0 W/m2
20:30 51.4 °F 42.7 °F 30.24 in Calm   5.0 mph 72 % 0.00 in 0 W/m2
20:35 51.4 °F 43.1 °F 30.24 in Calm   4.0 mph 73 % 0.00 in 0 W/m2
20:40 51.1 °F 42.7 °F 30.25 in SW 1.0 mph 2.0 mph 73 % 0.00 in 0 W/m2
20:45 51.1 °F 43.1 °F 30.25 in SW 1.0 mph 2.0 mph 74 % 0.00 in 0 W/m2
20:50 51.1 °F 43.4 °F 30.25 in Calm   2.0 mph 75 % 0.00 in 0 W/m2
20:55 51.1 °F 43.4 °F 30.25 in Calm   3.0 mph 75 % 0.00 in 0 W/m2
21:00 51.3 °F 44.0 °F 30.25 in Calm   3.0 mph 76 % 0.00 in 0 W/m2
21:05 51.3 °F 44.0 °F 30.25 in Calm   1.0 mph 76 % 0.00 in 0 W/m2
21:10 51.4 °F 44.1 °F 30.25 in Calm   1.0 mph 76 % 0.00 in 0 W/m2
21:15 51.3 °F 44.0 °F 30.25 in Calm   1.0 mph 76 % 0.00 in 0 W/m2
21:20 51.1 °F 43.8 °F 30.25 in Calm     76 % 0.00 in 0 W/m2
21:25 50.9 °F 43.9 °F 30.26 in Calm     77 % 0.00 in 0 W/m2
21:30 50.9 °F 43.9 °F 30.26 in Calm   3.0 mph 77 % 0.00 in 0 W/m2
21:35 50.7 °F 43.8 °F 30.26 in Calm   3.0 mph 77 % 0.00 in 0 W/m2
21:40 50.5 °F 43.6 °F 30.26 in Calm   2.0 mph 77 % 0.00 in 0 W/m2
21:45 50.4 °F 43.4 °F 30.26 in Calm   1.0 mph 77 % 0.00 in 0 W/m2
21:50 50.0 °F 43.4 °F 30.26 in Calm   1.0 mph 78 % 0.00 in 0 W/m2
21:55 49.6 °F 43.1 °F 30.26 in Calm     78 % 0.00 in 0 W/m2
22:00 49.5 °F 42.9 °F 30.26 in Calm     78 % 0.00 in 0 W/m2
22:05 48.9 °F 42.4 °F 30.26 in Calm   2.0 mph 78 % 0.00 in 0 W/m2
22:10 48.6 °F 42.0 °F 30.26 in West 1.0 mph 4.0 mph 78 % 0.00 in 0 W/m2
22:15 48.4 °F 41.8 °F 30.26 in West 1.0 mph 4.0 mph 78 % 0.00 in 0 W/m2
22:20 47.8 °F 41.3 °F 30.26 in Calm   2.0 mph 78 % 0.00 in 0 W/m2
22:25 47.5 °F 41.3 °F 30.26 in Calm     79 % 0.00 in 0 W/m2
22:30 47.1 °F 41.3 °F 30.27 in Calm     80 % 0.00 in 0 W/m2
22:35 46.9 °F 41.4 °F 30.26 in Calm     81 % 0.00 in 0 W/m2
22:40 46.6 °F 41.1 °F 30.26 in Calm     81 % 0.00 in 0 W/m2
22:45 46.2 °F 40.7 °F 30.26 in Calm     81 % 0.00 in 0 W/m2
22:50 45.9 °F 40.7 °F 30.26 in Calm     82 % 0.00 in 0 W/m2
22:55 45.7 °F 40.5 °F 30.26 in Calm     82 % 0.00 in 0 W/m2
23:01 45.1 °F 40.3 °F 30.26 in Calm     83 % 0.00 in 0 W/m2
23:06 45.0 °F 40.4 °F 30.26 in Calm     84 % 0.00 in 0 W/m2
23:11 44.8 °F 40.2 °F 30.26 in Calm     84 % 0.00 in 0 W/m2
23:16 44.8 °F 40.5 °F 30.27 in Calm     85 % 0.00 in 0 W/m2
23:17 44.8 °F 40.5 °F 30.27 in Calm     85 % 0.00 in 0 W/m2
23:22 44.4 °F 39.9 °F 30.27 in Calm     84 % 0.00 in 0 W/m2
23:27 44.2 °F 40.0 °F 30.27 in Calm     85 % 0.00 in 0 W/m2
23:32 43.9 °F 40.0 °F 30.27 in Calm     86 % 0.00 in 0 W/m2
23:33 43.9 °F 40.0 °F 30.26 in Calm     86 % 0.00 in 0 W/m2
23:38 43.7 °F 39.5 °F 30.27 in Calm     85 % 0.00 in 0 W/m2
23:43 43.3 °F 39.1 °F 30.27 in Calm     85 % 0.00 in 0 W/m2
23:48 43.2 °F 39.3 °F 30.27 in Calm   1.0 mph 86 % 0.00 in 0 W/m2
23:53 43.0 °F 39.4 °F 30.27 in Calm   2.0 mph 87 % 0.00 in 0 W/m2
23:58 42.6 °F 39.0 °F 30.27 in Calm   2.0 mph 87 % 0.00 in 0 W/m2
Delerius-Weather
Compliments of Weather Underground - 2.25 mb

Data updates at regular intervals.